sensor_id;sensor_type;location;lat;lon;timestamp;P1;durP1;ratioP1;P2;durP2;ratioP2
25079;SDS011;13071;48.868;9.996;2023-05-10T00:01:34;1.40;;;1.30;;
25079;SDS011;13071;48.868;9.996;2023-05-10T00:04:02;1.02;;;1.00;;
25079;SDS011;13071;48.868;9.996;2023-05-10T00:06:29;1.30;;;1.20;;
25079;SDS011;13071;48.868;9.996;2023-05-10T00:08:56;1.25;;;1.25;;
25079;SDS011;13071;48.868;9.996;2023-05-10T00:11:23;1.33;;;1.23;;
25079;SDS011;13071;48.868;9.996;2023-05-10T00:13:49;1.20;;;1.15;;
25079;SDS011;13071;48.868;9.996;2023-05-10T00:16:16;1.60;;;1.40;;
25079;SDS011;13071;48.868;9.996;2023-05-10T00:18:43;1.02;;;1.02;;
25079;SDS011;13071;48.868;9.996;2023-05-10T00:21:11;1.52;;;1.00;;
25079;SDS011;13071;48.868;9.996;2023-05-10T00:23:37;3.08;;;1.00;;
25079;SDS011;13071;48.868;9.996;2023-05-10T00:26:04;0.90;;;0.90;;
25079;SDS011;13071;48.868;9.996;2023-05-10T00:28:30;1.00;;;1.00;;
25079;SDS011;13071;48.868;9.996;2023-05-10T00:30:57;1.25;;;1.15;;
25079;SDS011;13071;48.868;9.996;2023-05-10T00:33:24;0.90;;;0.90;;
25079;SDS011;13071;48.868;9.996;2023-05-10T00:35:50;1.35;;;1.00;;
25079;SDS011;13071;48.868;9.996;2023-05-10T00:38:18;1.20;;;1.10;;
25079;SDS011;13071;48.868;9.996;2023-05-10T00:40:45;0.90;;;0.90;;
25079;SDS011;13071;48.868;9.996;2023-05-10T00:43:12;1.05;;;1.00;;
25079;SDS011;13071;48.868;9.996;2023-05-10T00:45:38;1.10;;;1.00;;
25079;SDS011;13071;48.868;9.996;2023-05-10T00:48:06;1.10;;;1.10;;
25079;SDS011;13071;48.868;9.996;2023-05-10T00:50:33;0.85;;;0.85;;
25079;SDS011;13071;48.868;9.996;2023-05-10T00:53:01;0.90;;;0.90;;
25079;SDS011;13071;48.868;9.996;2023-05-10T00:55:30;2.13;;;1.15;;
25079;SDS011;13071;48.868;9.996;2023-05-10T00:57:57;0.85;;;0.85;;
25079;SDS011;13071;48.868;9.996;2023-05-10T01:00:23;1.17;;;1.00;;
25079;SDS011;13071;48.868;9.996;2023-05-10T01:02:50;1.50;;;0.98;;
25079;SDS011;13071;48.868;9.996;2023-05-10T01:05:19;0.80;;;0.80;;
25079;SDS011;13071;48.868;9.996;2023-05-10T01:07:45;1.33;;;0.90;;
25079;SDS011;13071;48.868;9.996;2023-05-10T01:10:13;2.13;;;0.80;;
25079;SDS011;13071;48.868;9.996;2023-05-10T01:12:41;0.82;;;0.82;;
25079;SDS011;13071;48.868;9.996;2023-05-10T01:15:11;0.73;;;0.73;;
25079;SDS011;13071;48.868;9.996;2023-05-10T01:17:40;0.77;;;0.70;;
25079;SDS011;13071;48.868;9.996;2023-05-10T01:20:09;0.70;;;0.70;;
25079;SDS011;13071;48.868;9.996;2023-05-10T01:22:42;0.70;;;0.70;;
25079;SDS011;13071;48.868;9.996;2023-05-10T01:28:32;0.60;;;0.60;;
25079;SDS011;13071;48.868;9.996;2023-05-10T01:31:22;0.45;;;0.45;;
25079;SDS011;13071;48.868;9.996;2023-05-10T01:34:10;0.63;;;0.40;;
25079;SDS011;13071;48.868;9.996;2023-05-10T01:36:43;0.40;;;0.40;;
25079;SDS011;13071;48.868;9.996;2023-05-10T01:39:15;0.30;;;0.30;;
25079;SDS011;13071;48.868;9.996;2023-05-10T01:41:48;0.50;;;0.50;;
25079;SDS011;13071;48.868;9.996;2023-05-10T01:44:20;0.40;;;0.40;;
25079;SDS011;13071;48.868;9.996;2023-05-10T01:46:56;2.55;;;0.40;;
25079;SDS011;13071;48.868;9.996;2023-05-10T01:49:29;0.40;;;0.40;;
25079;SDS011;13071;48.868;9.996;2023-05-10T01:51:59;0.20;;;0.20;;
25079;SDS011;13071;48.868;9.996;2023-05-10T01:54:30;0.20;;;0.20;;
25079;SDS011;13071;48.868;9.996;2023-05-10T01:57:00;0.28;;;0.28;;
25079;SDS011;13071;48.868;9.996;2023-05-10T01:59:30;0.30;;;0.30;;
25079;SDS011;13071;48.868;9.996;2023-05-10T02:02:01;0.52;;;0.35;;
25079;SDS011;13071;48.868;9.996;2023-05-10T02:04:31;0.35;;;0.35;;
25079;SDS011;13071;48.868;9.996;2023-05-10T02:07:01;0.35;;;0.20;;
25079;SDS011;13071;48.868;9.996;2023-05-10T02:09:28;0.35;;;0.35;;
25079;SDS011;13071;48.868;9.996;2023-05-10T02:11:58;0.30;;;0.30;;
25079;SDS011;13071;48.868;9.996;2023-05-10T02:14:27;0.43;;;0.43;;
25079;SDS011;13071;48.868;9.996;2023-05-10T02:16:56;0.50;;;0.50;;
25079;SDS011;13071;48.868;9.996;2023-05-10T02:19:25;0.30;;;0.30;;
25079;SDS011;13071;48.868;9.996;2023-05-10T02:21:56;0.35;;;0.35;;
25079;SDS011;13071;48.868;9.996;2023-05-10T02:24:24;0.40;;;0.40;;
25079;SDS011;13071;48.868;9.996;2023-05-10T02:26:53;0.75;;;0.40;;
25079;SDS011;13071;48.868;9.996;2023-05-10T02:29:21;0.50;;;0.50;;
25079;SDS011;13071;48.868;9.996;2023-05-10T02:31:49;5.70;;;0.60;;
25079;SDS011;13071;48.868;9.996;2023-05-10T02:34:18;0.40;;;0.40;;
25079;SDS011;13071;48.868;9.996;2023-05-10T02:36:46;0.35;;;0.35;;
25079;SDS011;13071;48.868;9.996;2023-05-10T02:39:15;0.40;;;0.40;;
25079;SDS011;13071;48.868;9.996;2023-05-10T02:41:44;0.38;;;0.38;;
25079;SDS011;13071;48.868;9.996;2023-05-10T02:44:12;0.50;;;0.50;;
25079;SDS011;13071;48.868;9.996;2023-05-10T02:46:41;0.50;;;0.50;;
25079;SDS011;13071;48.868;9.996;2023-05-10T02:49:08;0.80;;;0.80;;
25079;SDS011;13071;48.868;9.996;2023-05-10T02:51:35;0.77;;;0.77;;
25079;SDS011;13071;48.868;9.996;2023-05-10T02:54:09;0.95;;;0.95;;
25079;SDS011;13071;48.868;9.996;2023-05-10T02:56:40;0.73;;;0.73;;
25079;SDS011;13071;48.868;9.996;2023-05-10T02:59:13;0.85;;;0.85;;
25079;SDS011;13071;48.868;9.996;2023-05-10T03:01:39;0.90;;;0.90;;
25079;SDS011;13071;48.868;9.996;2023-05-10T03:04:06;0.90;;;0.90;;
25079;SDS011;13071;48.868;9.996;2023-05-10T03:06:33;1.00;;;1.00;;
25079;SDS011;13071;48.868;9.996;2023-05-10T03:08:59;0.90;;;0.90;;
25079;SDS011;13071;48.868;9.996;2023-05-10T03:11:31;1.67;;;1.52;;
25079;SDS011;13071;48.868;9.996;2023-05-10T03:14:09;1.45;;;1.33;;
25079;SDS011;13071;48.868;9.996;2023-05-10T03:16:44;1.20;;;1.20;;
25079;SDS011;13071;48.868;9.996;2023-05-10T03:19:15;2.92;;;1.10;;
25079;SDS011;13071;48.868;9.996;2023-05-10T03:21:49;1.30;;;1.20;;
25079;SDS011;13071;48.868;9.996;2023-05-10T03:24:18;0.90;;;0.90;;
25079;SDS011;13071;48.868;9.996;2023-05-10T03:26:47;1.60;;;1.27;;
25079;SDS011;13071;48.868;9.996;2023-05-10T03:29:17;1.85;;;1.20;;
25079;SDS011;13071;48.868;9.996;2023-05-10T03:31:43;3.03;;;1.35;;
25079;SDS011;13071;48.868;9.996;2023-05-10T03:34:10;1.30;;;1.20;;
25079;SDS011;13071;48.868;9.996;2023-05-10T03:36:36;1.00;;;1.00;;
25079;SDS011;13071;48.868;9.996;2023-05-10T03:39:03;1.15;;;1.15;;
25079;SDS011;13071;48.868;9.996;2023-05-10T03:41:30;1.13;;;1.13;;
25079;SDS011;13071;48.868;9.996;2023-05-10T03:43:56;2.15;;;1.38;;
25079;SDS011;13071;48.868;9.996;2023-05-10T03:46:24;1.50;;;1.40;;
25079;SDS011;13071;48.868;9.996;2023-05-10T03:48:51;1.10;;;1.10;;
25079;SDS011;13071;48.868;9.996;2023-05-10T03:51:17;1.48;;;1.38;;
25079;SDS011;13071;48.868;9.996;2023-05-10T03:53:44;1.65;;;1.30;;
25079;SDS011;13071;48.868;9.996;2023-05-10T03:56:10;1.40;;;1.40;;
25079;SDS011;13071;48.868;9.996;2023-05-10T03:58:37;1.35;;;1.25;;
25079;SDS011;13071;48.868;9.996;2023-05-10T04:01:04;2.45;;;1.30;;
25079;SDS011;13071;48.868;9.996;2023-05-10T04:03:32;1.48;;;1.38;;
25079;SDS011;13071;48.868;9.996;2023-05-10T04:06:00;1.30;;;1.20;;
25079;SDS011;13071;48.868;9.996;2023-05-10T04:08:27;2.13;;;1.23;;
25079;SDS011;13071;48.868;9.996;2023-05-10T04:10:54;1.38;;;1.27;;
25079;SDS011;13071;48.868;9.996;2023-05-10T04:13:20;1.45;;;1.35;;
25079;SDS011;13071;48.868;9.996;2023-05-10T04:15:47;1.63;;;1.50;;
25079;SDS011;13071;48.868;9.996;2023-05-10T04:18:14;1.60;;;1.50;;
25079;SDS011;13071;48.868;9.996;2023-05-10T04:20:42;1.70;;;1.60;;
25079;SDS011;13071;48.868;9.996;2023-05-10T04:23:08;1.60;;;1.50;;
25079;SDS011;13071;48.868;9.996;2023-05-10T04:25:35;1.60;;;1.50;;
25079;SDS011;13071;48.868;9.996;2023-05-10T04:28:01;2.25;;;1.60;;
25079;SDS011;13071;48.868;9.996;2023-05-10T04:30:28;1.60;;;1.50;;
25079;SDS011;13071;48.868;9.996;2023-05-10T04:32:55;1.58;;;1.48;;
25079;SDS011;13071;48.868;9.996;2023-05-10T04:35:22;2.13;;;1.92;;
25079;SDS011;13071;48.868;9.996;2023-05-10T04:37:49;1.75;;;1.65;;
25079;SDS011;13071;48.868;9.996;2023-05-10T04:40:16;1.92;;;1.73;;
25079;SDS011;13071;48.868;9.996;2023-05-10T04:42:43;2.08;;;1.88;;
25079;SDS011;13071;48.868;9.996;2023-05-10T04:45:10;2.55;;;2.35;;
25079;SDS011;13071;48.868;9.996;2023-05-10T04:47:37;2.45;;;2.25;;
25079;SDS011;13071;48.868;9.996;2023-05-10T04:50:03;2.60;;;2.22;;
25079;SDS011;13071;48.868;9.996;2023-05-10T04:52:31;2.35;;;2.15;;
25079;SDS011;13071;48.868;9.996;2023-05-10T04:54:59;3.20;;;2.10;;
25079;SDS011;13071;48.868;9.996;2023-05-10T04:57:25;2.65;;;2.30;;
25079;SDS011;13071;48.868;9.996;2023-05-10T04:59:52;2.22;;;2.00;;
25079;SDS011;13071;48.868;9.996;2023-05-10T05:02:18;2.60;;;2.08;;
25079;SDS011;13071;48.868;9.996;2023-05-10T05:04:45;2.22;;;2.00;;
25079;SDS011;13071;48.868;9.996;2023-05-10T05:07:12;2.08;;;1.92;;
25079;SDS011;13071;48.868;9.996;2023-05-10T05:09:38;2.30;;;2.10;;
25079;SDS011;13071;48.868;9.996;2023-05-10T05:12:06;2.10;;;1.90;;
25079;SDS011;13071;48.868;9.996;2023-05-10T05:14:33;5.10;;;2.25;;
25079;SDS011;13071;48.868;9.996;2023-05-10T05:16:59;2.13;;;1.92;;
25079;SDS011;13071;48.868;9.996;2023-05-10T05:19:26;2.22;;;2.05;;
25079;SDS011;13071;48.868;9.996;2023-05-10T05:21:53;2.00;;;1.90;;
25079;SDS011;13071;48.868;9.996;2023-05-10T05:24:20;2.45;;;2.20;;
25079;SDS011;13071;48.868;9.996;2023-05-10T05:26:46;2.88;;;2.58;;
25079;SDS011;13071;48.868;9.996;2023-05-10T05:29:15;3.88;;;2.30;;
25079;SDS011;13071;48.868;9.996;2023-05-10T05:31:41;3.03;;;2.35;;
25079;SDS011;13071;48.868;9.996;2023-05-10T05:34:08;2.58;;;2.30;;
25079;SDS011;13071;48.868;9.996;2023-05-10T05:36:35;2.53;;;2.13;;
25079;SDS011;13071;48.868;9.996;2023-05-10T05:39:03;2.67;;;1.95;;
25079;SDS011;13071;48.868;9.996;2023-05-10T05:41:29;4.68;;;2.28;;
25079;SDS011;13071;48.868;9.996;2023-05-10T05:43:56;2.97;;;2.40;;
25079;SDS011;13071;48.868;9.996;2023-05-10T05:46:24;2.75;;;2.25;;
25079;SDS011;13071;48.868;9.996;2023-05-10T05:48:51;2.10;;;2.00;;
25079;SDS011;13071;48.868;9.996;2023-05-10T05:51:17;2.63;;;2.30;;
25079;SDS011;13071;48.868;9.996;2023-05-10T05:53:44;2.42;;;2.20;;
25079;SDS011;13071;48.868;9.996;2023-05-10T05:56:10;3.08;;;2.20;;
25079;SDS011;13071;48.868;9.996;2023-05-10T05:58:37;2.30;;;2.10;;
25079;SDS011;13071;48.868;9.996;2023-05-10T06:01:04;2.30;;;2.10;;
25079;SDS011;13071;48.868;9.996;2023-05-10T06:03:32;2.03;;;1.67;;
25079;SDS011;13071;48.868;9.996;2023-05-10T06:05:59;1.95;;;1.80;;
25079;SDS011;13071;48.868;9.996;2023-05-10T06:08:25;1.75;;;1.60;;
25079;SDS011;13071;48.868;9.996;2023-05-10T06:10:52;3.70;;;1.65;;
25079;SDS011;13071;48.868;9.996;2023-05-10T06:13:18;1.30;;;1.30;;
25079;SDS011;13071;48.868;9.996;2023-05-10T06:15:45;1.77;;;1.55;;
25079;SDS011;13071;48.868;9.996;2023-05-10T06:18:11;1.23;;;1.23;;
25079;SDS011;13071;48.868;9.996;2023-05-10T06:20:40;2.85;;;1.70;;
25079;SDS011;13071;48.868;9.996;2023-05-10T06:23:07;1.50;;;1.40;;
25079;SDS011;13071;48.868;9.996;2023-05-10T06:25:34;1.35;;;1.33;;
25079;SDS011;13071;48.868;9.996;2023-05-10T06:28:00;4.93;;;2.17;;
25079;SDS011;13071;48.868;9.996;2023-05-10T06:30:27;4.65;;;1.55;;
25079;SDS011;13071;48.868;9.996;2023-05-10T06:32:53;1.92;;;1.58;;
25079;SDS011;13071;48.868;9.996;2023-05-10T06:35:20;1.90;;;1.75;;
25079;SDS011;13071;48.868;9.996;2023-05-10T06:37:48;1.67;;;1.50;;
25079;SDS011;13071;48.868;9.996;2023-05-10T06:40:15;1.60;;;1.50;;
25079;SDS011;13071;48.868;9.996;2023-05-10T06:42:42;3.90;;;1.60;;
25079;SDS011;13071;48.868;9.996;2023-05-10T06:45:10;2.30;;;1.40;;
25079;SDS011;13071;48.868;9.996;2023-05-10T06:47:37;1.83;;;1.70;;
25079;SDS011;13071;48.868;9.996;2023-05-10T06:50:04;1.65;;;1.55;;
25079;SDS011;13071;48.868;9.996;2023-05-10T06:52:31;1.88;;;1.65;;
25079;SDS011;13071;48.868;9.996;2023-05-10T06:54:59;2.08;;;1.70;;
25079;SDS011;13071;48.868;9.996;2023-05-10T06:57:26;2.03;;;1.80;;
25079;SDS011;13071;48.868;9.996;2023-05-10T06:59:53;2.13;;;1.63;;
25079;SDS011;13071;48.868;9.996;2023-05-10T07:02:21;1.73;;;1.63;;
25079;SDS011;13071;48.868;9.996;2023-05-10T07:04:47;2.55;;;1.80;;
25079;SDS011;13071;48.868;9.996;2023-05-10T07:07:15;1.58;;;1.48;;
25079;SDS011;13071;48.868;9.996;2023-05-10T07:09:41;3.13;;;2.25;;
25079;SDS011;13071;48.868;9.996;2023-05-10T07:12:09;3.20;;;1.95;;
25079;SDS011;13071;48.868;9.996;2023-05-10T07:14:36;2.05;;;1.45;;
25079;SDS011;13071;48.868;9.996;2023-05-10T07:17:02;1.60;;;1.50;;
25079;SDS011;13071;48.868;9.996;2023-05-10T07:19:29;1.83;;;1.63;;
25079;SDS011;13071;48.868;9.996;2023-05-10T07:21:57;3.95;;;1.83;;
25079;SDS011;13071;48.868;9.996;2023-05-10T07:24:24;2.53;;;2.30;;
25079;SDS011;13071;48.868;9.996;2023-05-10T07:26:50;2.28;;;2.08;;
25079;SDS011;13071;48.868;9.996;2023-05-10T07:29:18;1.77;;;1.67;;
25079;SDS011;13071;48.868;9.996;2023-05-10T07:31:45;1.83;;;1.70;;
25079;SDS011;13071;48.868;9.996;2023-05-10T07:34:11;2.00;;;1.80;;
25079;SDS011;13071;48.868;9.996;2023-05-10T07:36:38;2.05;;;1.95;;
25079;SDS011;13071;48.868;9.996;2023-05-10T07:39:05;2.05;;;1.90;;
25079;SDS011;13071;48.868;9.996;2023-05-10T07:41:32;2.15;;;1.95;;
25079;SDS011;13071;48.868;9.996;2023-05-10T07:43:58;5.60;;;1.90;;
25079;SDS011;13071;48.868;9.996;2023-05-10T07:46:26;1.95;;;1.85;;
25079;SDS011;13071;48.868;9.996;2023-05-10T07:48:53;3.00;;;2.10;;
25079;SDS011;13071;48.868;9.996;2023-05-10T07:51:20;2.47;;;2.10;;
25079;SDS011;13071;48.868;9.996;2023-05-10T07:53:46;2.88;;;2.20;;
25079;SDS011;13071;48.868;9.996;2023-05-10T07:56:19;1.85;;;1.70;;
25079;SDS011;13071;48.868;9.996;2023-05-10T07:58:47;1.60;;;1.50;;
25079;SDS011;13071;48.868;9.996;2023-05-10T08:01:14;1.65;;;1.55;;
25079;SDS011;13071;48.868;9.996;2023-05-10T08:03:42;1.75;;;1.65;;
25079;SDS011;13071;48.868;9.996;2023-05-10T08:06:08;2.42;;;1.70;;
25079;SDS011;13071;48.868;9.996;2023-05-10T08:08:35;1.85;;;1.75;;
25079;SDS011;13071;48.868;9.996;2023-05-10T08:11:01;3.53;;;1.83;;
25079;SDS011;13071;48.868;9.996;2023-05-10T08:13:29;2.35;;;1.70;;
25079;SDS011;13071;48.868;9.996;2023-05-10T08:15:56;2.20;;;1.92;;
25079;SDS011;13071;48.868;9.996;2023-05-10T08:18:23;1.52;;;1.45;;
25079;SDS011;13071;48.868;9.996;2023-05-10T08:20:51;1.05;;;1.05;;
25079;SDS011;13071;48.868;9.996;2023-05-10T08:23:17;1.20;;;1.20;;
25079;SDS011;13071;48.868;9.996;2023-05-10T08:25:44;1.42;;;1.33;;
25079;SDS011;13071;48.868;9.996;2023-05-10T08:28:10;3.20;;;1.33;;
25079;SDS011;13071;48.868;9.996;2023-05-10T08:30:37;2.72;;;1.50;;
25079;SDS011;13071;48.868;9.996;2023-05-10T08:33:03;2.42;;;1.63;;
25079;SDS011;13071;48.868;9.996;2023-05-10T08:35:30;2.10;;;1.40;;
25079;SDS011;13071;48.868;9.996;2023-05-10T08:37:59;1.50;;;1.40;;
25079;SDS011;13071;48.868;9.996;2023-05-10T08:40:26;3.10;;;2.10;;
25079;SDS011;13071;48.868;9.996;2023-05-10T08:42:55;2.08;;;1.70;;
25079;SDS011;13071;48.868;9.996;2023-05-10T08:45:25;2.80;;;1.58;;
25079;SDS011;13071;48.868;9.996;2023-05-10T08:47:56;1.45;;;1.35;;
25079;SDS011;13071;48.868;9.996;2023-05-10T08:50:24;1.58;;;1.48;;
25079;SDS011;13071;48.868;9.996;2023-05-10T08:52:51;1.38;;;1.27;;
25079;SDS011;13071;48.868;9.996;2023-05-10T08:55:22;1.60;;;1.50;;
25079;SDS011;13071;48.868;9.996;2023-05-10T08:57:50;1.30;;;1.20;;
25079;SDS011;13071;48.868;9.996;2023-05-10T09:00:16;3.25;;;1.08;;
25079;SDS011;13071;48.868;9.996;2023-05-10T09:02:44;1.52;;;1.10;;
25079;SDS011;13071;48.868;9.996;2023-05-10T09:05:11;0.90;;;0.90;;
25079;SDS011;13071;48.868;9.996;2023-05-10T09:07:40;1.42;;;0.82;;
25079;SDS011;13071;48.868;9.996;2023-05-10T09:10:07;0.90;;;0.90;;
25079;SDS011;13071;48.868;9.996;2023-05-10T09:12:36;4.88;;;1.20;;
25079;SDS011;13071;48.868;9.996;2023-05-10T09:15:03;1.15;;;1.10;;
25079;SDS011;13071;48.868;9.996;2023-05-10T09:17:32;1.33;;;1.20;;
25079;SDS011;13071;48.868;9.996;2023-05-10T09:19:59;1.20;;;1.20;;
25079;SDS011;13071;48.868;9.996;2023-05-10T09:22:26;1.60;;;1.00;;
25079;SDS011;13071;48.868;9.996;2023-05-10T09:25:03;1.40;;;1.30;;
25079;SDS011;13071;48.868;9.996;2023-05-10T09:27:30;1.25;;;1.15;;
25079;SDS011;13071;48.868;9.996;2023-05-10T09:29:58;1.33;;;1.13;;
25079;SDS011;13071;48.868;9.996;2023-05-10T09:32:35;1.00;;;1.00;;
25079;SDS011;13071;48.868;9.996;2023-05-10T09:35:05;1.00;;;1.00;;
25079;SDS011;13071;48.868;9.996;2023-05-10T09:37:33;1.70;;;1.00;;
25079;SDS011;13071;48.868;9.996;2023-05-10T09:39:59;0.95;;;0.95;;
25079;SDS011;13071;48.868;9.996;2023-05-10T09:42:26;0.93;;;0.93;;
25079;SDS011;13071;48.868;9.996;2023-05-10T09:44:52;1.20;;;1.10;;
25079;SDS011;13071;48.868;9.996;2023-05-10T09:47:20;1.38;;;0.90;;
25079;SDS011;13071;48.868;9.996;2023-05-10T09:49:49;0.90;;;0.90;;
25079;SDS011;13071;48.868;9.996;2023-05-10T09:52:16;0.90;;;0.90;;
25079;SDS011;13071;48.868;9.996;2023-05-10T09:54:45;0.90;;;0.90;;
25079;SDS011;13071;48.868;9.996;2023-05-10T09:57:20;0.90;;;0.90;;
25079;SDS011;13071;48.868;9.996;2023-05-10T09:59:47;4.10;;;1.27;;
25079;SDS011;13071;48.868;9.996;2023-05-10T10:02:14;1.60;;;1.25;;
25079;SDS011;13071;48.868;9.996;2023-05-10T10:04:42;0.90;;;0.90;;
25079;SDS011;13071;48.868;9.996;2023-05-10T10:07:09;1.65;;;1.50;;
25079;SDS011;13071;48.868;9.996;2023-05-10T10:09:35;1.75;;;1.20;;
25079;SDS011;13071;48.868;9.996;2023-05-10T10:12:02;1.17;;;1.17;;
25079;SDS011;13071;48.868;9.996;2023-05-10T10:14:29;1.00;;;1.00;;
25079;SDS011;13071;48.868;9.996;2023-05-10T10:16:56;1.42;;;1.33;;
25079;SDS011;13071;48.868;9.996;2023-05-10T10:19:22;1.48;;;1.02;;
25079;SDS011;13071;48.868;9.996;2023-05-10T10:21:50;1.35;;;1.30;;
25079;SDS011;13071;48.868;9.996;2023-05-10T10:24:17;1.10;;;1.10;;
25079;SDS011;13071;48.868;9.996;2023-05-10T10:26:44;1.00;;;1.00;;
25079;SDS011;13071;48.868;9.996;2023-05-10T10:29:16;1.65;;;1.30;;
25079;SDS011;13071;48.868;9.996;2023-05-10T10:31:51;1.30;;;1.20;;
25079;SDS011;13071;48.868;9.996;2023-05-10T10:34:25;1.25;;;1.15;;
25079;SDS011;13071;48.868;9.996;2023-05-10T10:36:55;2.25;;;1.27;;
25079;SDS011;13071;48.868;9.996;2023-05-10T10:39:23;1.45;;;1.15;;
25079;SDS011;13071;48.868;9.996;2023-05-10T10:41:51;0.95;;;0.95;;
25079;SDS011;13071;48.868;9.996;2023-05-10T10:44:22;1.00;;;1.00;;
25079;SDS011;13071;48.868;9.996;2023-05-10T10:46:59;0.68;;;0.68;;
25079;SDS011;13071;48.868;9.996;2023-05-10T10:49:27;0.90;;;0.90;;
25079;SDS011;13071;48.868;9.996;2023-05-10T10:54:58;0.70;;;0.70;;
25079;SDS011;13071;48.868;9.996;2023-05-10T10:57:26;0.85;;;0.85;;
25079;SDS011;13071;48.868;9.996;2023-05-10T11:02:50;5.30;;;1.02;;
25079;SDS011;13071;48.868;9.996;2023-05-10T11:05:33;0.65;;;0.65;;
25079;SDS011;13071;48.868;9.996;2023-05-10T11:08:10;1.10;;;0.50;;
25079;SDS011;13071;48.868;9.996;2023-05-10T11:10:52;0.60;;;0.60;;
25079;SDS011;13071;48.868;9.996;2023-05-10T11:13:32;0.93;;;0.63;;
25079;SDS011;13071;48.868;9.996;2023-05-10T11:16:09;0.60;;;0.60;;
25079;SDS011;13071;48.868;9.996;2023-05-10T11:18:40;0.50;;;0.50;;
25079;SDS011;13071;48.868;9.996;2023-05-10T11:21:08;0.50;;;0.50;;
25079;SDS011;13071;48.868;9.996;2023-05-10T11:23:48;0.60;;;0.60;;
25079;SDS011;13071;48.868;9.996;2023-05-10T11:26:16;0.98;;;0.60;;
25079;SDS011;13071;48.868;9.996;2023-05-10T11:28:43;1.10;;;0.60;;
25079;SDS011;13071;48.868;9.996;2023-05-10T11:31:10;0.80;;;0.80;;
25079;SDS011;13071;48.868;9.996;2023-05-10T11:33:42;0.68;;;0.68;;
25079;SDS011;13071;48.868;9.996;2023-05-10T11:36:10;0.90;;;0.90;;
25079;SDS011;13071;48.868;9.996;2023-05-10T11:38:37;0.75;;;0.75;;
25079;SDS011;13071;48.868;9.996;2023-05-10T11:41:05;0.80;;;0.80;;
25079;SDS011;13071;48.868;9.996;2023-05-10T11:43:33;0.82;;;0.82;;
25079;SDS011;13071;48.868;9.996;2023-05-10T11:46:01;1.10;;;1.10;;
25079;SDS011;13071;48.868;9.996;2023-05-10T11:48:29;1.15;;;1.10;;
25079;SDS011;13071;48.868;9.996;2023-05-10T11:50:55;1.13;;;1.13;;
25079;SDS011;13071;48.868;9.996;2023-05-10T11:53:23;1.00;;;1.00;;
25079;SDS011;13071;48.868;9.996;2023-05-10T11:55:51;1.50;;;1.40;;
25079;SDS011;13071;48.868;9.996;2023-05-10T11:58:19;2.97;;;1.15;;
25079;SDS011;13071;48.868;9.996;2023-05-10T12:00:48;1.25;;;1.02;;
25079;SDS011;13071;48.868;9.996;2023-05-10T12:03:16;1.90;;;1.15;;
25079;SDS011;13071;48.868;9.996;2023-05-10T12:05:43;1.38;;;1.08;;
25079;SDS011;13071;48.868;9.996;2023-05-10T12:08:13;0.98;;;0.98;;
25079;SDS011;13071;48.868;9.996;2023-05-10T12:10:40;0.90;;;0.90;;
25079;SDS011;13071;48.868;9.996;2023-05-10T12:13:10;0.80;;;0.80;;
25079;SDS011;13071;48.868;9.996;2023-05-10T12:15:40;1.58;;;1.00;;
25079;SDS011;13071;48.868;9.996;2023-05-10T12:18:08;0.77;;;0.77;;
25079;SDS011;13071;48.868;9.996;2023-05-10T12:20:36;1.30;;;0.98;;
25079;SDS011;13071;48.868;9.996;2023-05-10T12:23:03;0.70;;;0.70;;
25079;SDS011;13071;48.868;9.996;2023-05-10T12:25:31;0.80;;;0.80;;
25079;SDS011;13071;48.868;9.996;2023-05-10T12:27:59;0.60;;;0.60;;
25079;SDS011;13071;48.868;9.996;2023-05-10T12:30:29;0.70;;;0.70;;
25079;SDS011;13071;48.868;9.996;2023-05-10T12:33:02;0.85;;;0.70;;
25079;SDS011;13071;48.868;9.996;2023-05-10T12:35:33;0.60;;;0.60;;
25079;SDS011;13071;48.868;9.996;2023-05-10T12:38:22;3.30;;;0.70;;
25079;SDS011;13071;48.868;9.996;2023-05-10T12:40:51;1.45;;;1.10;;
25079;SDS011;13071;48.868;9.996;2023-05-10T12:43:17;0.82;;;0.82;;
25079;SDS011;13071;48.868;9.996;2023-05-10T12:45:44;1.08;;;1.08;;
25079;SDS011;13071;48.868;9.996;2023-05-10T12:48:14;0.73;;;0.73;;
25079;SDS011;13071;48.868;9.996;2023-05-10T12:50:41;2.08;;;1.02;;
25079;SDS011;13071;48.868;9.996;2023-05-10T12:53:07;1.00;;;1.00;;
25079;SDS011;13071;48.868;9.996;2023-05-10T12:55:34;0.90;;;0.90;;
25079;SDS011;13071;48.868;9.996;2023-05-10T12:58:01;0.93;;;0.70;;
25079;SDS011;13071;48.868;9.996;2023-05-10T13:00:27;0.80;;;0.80;;
25079;SDS011;13071;48.868;9.996;2023-05-10T13:02:54;0.60;;;0.60;;
25079;SDS011;13071;48.868;9.996;2023-05-10T13:05:22;0.85;;;0.80;;
25079;SDS011;13071;48.868;9.996;2023-05-10T13:07:49;0.70;;;0.70;;
25079;SDS011;13071;48.868;9.996;2023-05-10T13:10:16;1.13;;;0.65;;
25079;SDS011;13071;48.868;9.996;2023-05-10T13:12:42;1.52;;;0.70;;
25079;SDS011;13071;48.868;9.996;2023-05-10T13:15:09;0.70;;;0.70;;
25079;SDS011;13071;48.868;9.996;2023-05-10T13:17:36;0.70;;;0.70;;
25079;SDS011;13071;48.868;9.996;2023-05-10T13:20:04;0.90;;;0.90;;
25079;SDS011;13071;48.868;9.996;2023-05-10T13:25:00;2.50;;;0.82;;
25079;SDS011;13071;48.868;9.996;2023-05-10T13:27:27;2.97;;;0.88;;
25079;SDS011;13071;48.868;9.996;2023-05-10T13:29:53;1.30;;;1.02;;
25079;SDS011;13071;48.868;9.996;2023-05-10T13:32:20;2.03;;;1.00;;
25079;SDS011;13071;48.868;9.996;2023-05-10T13:34:47;1.05;;;1.05;;
25079;SDS011;13071;48.868;9.996;2023-05-10T13:37:14;0.75;;;0.75;;
25079;SDS011;13071;48.868;9.996;2023-05-10T13:39:42;0.90;;;0.90;;
25079;SDS011;13071;48.868;9.996;2023-05-10T13:42:08;2.83;;;1.00;;
25079;SDS011;13071;48.868;9.996;2023-05-10T13:44:35;1.33;;;1.05;;
25079;SDS011;13071;48.868;9.996;2023-05-10T13:47:03;1.48;;;1.08;;
25079;SDS011;13071;48.868;9.996;2023-05-10T13:49:30;1.10;;;1.10;;
25079;SDS011;13071;48.868;9.996;2023-05-10T13:51:57;1.30;;;1.20;;
25079;SDS011;13071;48.868;9.996;2023-05-10T13:54:23;1.67;;;1.20;;
25079;SDS011;13071;48.868;9.996;2023-05-10T13:56:52;1.00;;;1.00;;
25079;SDS011;13071;48.868;9.996;2023-05-10T13:59:19;1.42;;;1.27;;
25079;SDS011;13071;48.868;9.996;2023-05-10T14:01:45;5.43;;;1.20;;
25079;SDS011;13071;48.868;9.996;2023-05-10T14:04:12;0.80;;;0.80;;
25079;SDS011;13071;48.868;9.996;2023-05-10T14:06:39;0.90;;;0.90;;
25079;SDS011;13071;48.868;9.996;2023-05-10T14:09:05;0.80;;;0.80;;
25079;SDS011;13071;48.868;9.996;2023-05-10T14:11:32;0.90;;;0.90;;
25079;SDS011;13071;48.868;9.996;2023-05-10T14:14:00;1.00;;;1.00;;
25079;SDS011;13071;48.868;9.996;2023-05-10T14:16:27;1.52;;;1.00;;
25079;SDS011;13071;48.868;9.996;2023-05-10T14:18:54;3.70;;;1.20;;
25079;SDS011;13071;48.868;9.996;2023-05-10T14:21:20;1.50;;;1.40;;
25079;SDS011;13071;48.868;9.996;2023-05-10T14:23:47;1.10;;;1.00;;
25079;SDS011;13071;48.868;9.996;2023-05-10T14:26:13;2.05;;;1.40;;
25079;SDS011;13071;48.868;9.996;2023-05-10T14:28:40;3.60;;;1.00;;
25079;SDS011;13071;48.868;9.996;2023-05-10T14:31:08;1.38;;;1.25;;
25079;SDS011;13071;48.868;9.996;2023-05-10T14:33:35;3.40;;;1.20;;
25079;SDS011;13071;48.868;9.996;2023-05-10T14:36:01;1.17;;;1.08;;
25079;SDS011;13071;48.868;9.996;2023-05-10T14:38:29;10.95;;;1.65;;
25079;SDS011;13071;48.868;9.996;2023-05-10T14:40:55;2.13;;;1.35;;
25079;SDS011;13071;48.868;9.996;2023-05-10T14:43:22;1.33;;;1.00;;
25079;SDS011;13071;48.868;9.996;2023-05-10T14:45:49;2.15;;;1.20;;
25079;SDS011;13071;48.868;9.996;2023-05-10T14:48:17;6.63;;;1.10;;
25079;SDS011;13071;48.868;9.996;2023-05-10T14:50:43;1.95;;;1.40;;
25079;SDS011;13071;48.868;9.996;2023-05-10T14:53:11;2.05;;;1.17;;
25079;SDS011;13071;48.868;9.996;2023-05-10T14:55:38;1.42;;;1.20;;
25079;SDS011;13071;48.868;9.996;2023-05-10T14:58:04;1.52;;;1.40;;
25079;SDS011;13071;48.868;9.996;2023-05-10T15:00:31;1.42;;;1.35;;
25079;SDS011;13071;48.868;9.996;2023-05-10T15:02:57;1.33;;;1.23;;
25079;SDS011;13071;48.868;9.996;2023-05-10T15:05:25;1.98;;;1.23;;